Time,TemperatureF,DewpointF,PressureIn,WindDirection,WindDirectionDegrees,WindSpeedMPH,WindSpeedGustMPH,Humidity,HourlyPrecipIn,Conditions,Clouds,dailyrainin,SoftwareType,DateUTC
2013-02-14 00:00:00,40.6,32.6,29.94,SW,236,3.7,5.8,73,0.00,RA,,0.00,WeatherDisplay:10.37,2013-02-14 06:00:00,
2013-02-14 00:05:00,40.6,32.6,29.93,WNW,290,3.3,3.5,73,0.00,RA,,0.00,WeatherDisplay:10.37,2013-02-14 06:05:00,
2013-02-14 00:10:00,40.4,32.8,29.93,West,271,2.9,3.5,74,0.00,,,0.00,WeatherDisplay:10.37,2013-02-14 06:10:00,
2013-02-14 00:15:00,40.2,32.6,29.94,WSW,255,3.6,5.8,74,0.00,,,0.00,WeatherDisplay:10.37,2013-02-14 06:15:00,
2013-02-14 00:20:00,40.1,32.5,29.94,West,259,2.3,4.0,74,0.00,,,0.00,WeatherDisplay:10.37,2013-02-14 06:20:00,
2013-02-14 00:25:00,40.1,32.5,29.94,WSW,239,2.2,3.5,74,0.00,,,0.00,WeatherDisplay:10.37,2013-02-14 06:25:00,
2013-02-14 00:30:00,40.0,32.7,29.93,West,259,2.8,4.6,75,0.00,,,0.00,WeatherDisplay:10.37,2013-02-14 06:30:00,
2013-02-14 00:35:00,40.0,32.7,29.93,WSW,253,3.0,4.6,75,0.00,,,0.00,WeatherDisplay:10.37,2013-02-14 06:35:00,
2013-02-14 00:40:00,39.9,32.6,29.93,West,270,2.5,3.5,75,0.00,,,0.00,WeatherDisplay:10.37,2013-02-14 06:40:00,
2013-02-14 00:45:00,39.9,32.6,29.93,West,264,2.9,3.5,75,0.00,,,0.00,WeatherDisplay:10.37,2013-02-14 06:45:00,
2013-02-14 00:50:00,39.9,32.6,29.93,WSW,257,2.7,3.5,75,0.00,,,0.00,WeatherDisplay:10.37,2013-02-14 06:50:00,
2013-02-14 00:55:00,39.8,32.5,29.94,West,265,1.8,3.5,75,0.00,,,0.00,WeatherDisplay:10.37,2013-02-14 06:55:00,
2013-02-14 01:00:00,39.7,32.4,29.93,SW,233,1.9,2.3,75,0.00,,,0.00,WeatherDisplay:10.37,2013-02-14 07:00:00,
2013-02-14 01:05:00,39.8,32.5,29.93,WSW,240,2.4,3.5,75,0.00,,,0.00,WeatherDisplay:10.37,2013-02-14 07:05:00,
2013-02-14 01:10:00,39.8,32.5,29.94,WSW,257,1.8,3.5,75,0.00,,,0.00,WeatherDisplay:10.37,2013-02-14 07:10:00,
2013-02-14 01:15:00,39.7,32.4,29.93,WSW,258,2.1,3.5,75,0.00,,,0.00,WeatherDisplay:10.37,2013-02-14 07:15:00,
2013-02-14 01:20:00,39.7,32.4,29.94,WSW,256,2.1,2.3,75,0.00,,,0.00,WeatherDisplay:10.37,2013-02-14 07:20:00,
2013-02-14 01:25:00,39.8,32.2,29.93,West,263,1.9,2.3,74,0.00,,,0.00,WeatherDisplay:10.37,2013-02-14 07:25:00,
2013-02-14 01:30:00,39.7,32.1,29.93,WSW,253,2.8,3.5,74,0.00,,,0.00,WeatherDisplay:10.37,2013-02-14 07:30:00,
2013-02-14 01:35:00,39.7,32.1,29.94,West,266,3.2,5.8,74,0.00,,,0.00,WeatherDisplay:10.37,2013-02-14 07:35:00,
2013-02-14 01:40:00,39.6,32.3,29.93,West,264,2.5,3.5,75,0.00,,,0.00,WeatherDisplay:10.37,2013-02-14 07:40:00,
2013-02-14 01:45:00,39.7,32.1,29.94,West,267,2.8,3.5,74,0.00,,,0.00,WeatherDisplay:10.37,2013-02-14 07:45:00,
2013-02-14 01:50:00,39.6,32.0,29.94,WSW,249,2.2,3.5,74,0.00,,,0.00,WeatherDisplay:10.37,2013-02-14 07:50:00,
2013-02-14 01:55:00,39.5,32.2,29.94,WSW,243,2.8,3.5,75,0.00,,,0.00,WeatherDisplay:10.37,2013-02-14 07:55:00,
2013-02-14 02:00:00,39.3,32.0,29.94,West,269,2.7,3.5,75,0.00,,,0.00,WeatherDisplay:10.37,2013-02-14 08:00:00,
2013-02-14 02:05:00,39.3,32.0,29.94,WSW,252,2.8,3.5,75,0.00,,,0.00,WeatherDisplay:10.37,2013-02-14 08:05:00,
2013-02-14 02:10:00,39.4,31.8,29.94,WSW,256,3.8,3.8,74,0.00,,,0.00,WeatherDisplay:10.37,2013-02-14 08:10:00,
2013-02-14 02:15:00,39.3,31.7,29.94,West,274,3.6,4.6,74,0.00,,,0.00,WeatherDisplay:10.37,2013-02-14 08:15:00,
2013-02-14 02:20:00,39.4,31.8,29.94,WSW,250,3.2,4.0,74,0.00,,,0.00,WeatherDisplay:10.37,2013-02-14 08:20:00,
2013-02-14 02:25:00,39.7,31.8,29.94,West,263,2.1,3.5,73,0.00,,,0.00,WeatherDisplay:10.37,2013-02-14 08:25:00,
2013-02-14 02:31:00,39.9,31.6,29.94,SW,233,2.8,5.8,72,0.00,,,0.00,WeatherDisplay:10.37,2013-02-14 08:31:00,
2013-02-14 02:36:00,39.8,31.5,29.94,WSW,246,3.7,4.6,72,0.00,,,0.00,WeatherDisplay:10.37,2013-02-14 08:36:00,
2013-02-14 02:41:00,39.9,31.6,29.94,West,274,4.0,4.6,72,0.00,,,0.00,WeatherDisplay:10.37,2013-02-14 08:41:00,
2013-02-14 02:46:00,39.9,31.3,29.94,West,273,2.5,5.0,71,0.00,,,0.00,WeatherDisplay:10.37,2013-02-14 08:46:00,
2013-02-14 02:51:00,39.9,31.3,29.94,WSW,240,2.6,4.6,71,0.00,,,0.00,WeatherDisplay:10.37,2013-02-14 08:51:00,
2013-02-14 02:56:00,39.8,31.2,29.94,WSW,252,3.7,5.8,71,0.00,,,0.00,WeatherDisplay:10.37,2013-02-14 08:56:00,
2013-02-14 03:01:00,39.7,31.1,29.94,West,273,3.6,4.6,71,0.00,,,0.00,WeatherDisplay:10.37,2013-02-14 09:01:00,
2013-02-14 03:06:00,39.7,31.1,29.94,WSW,247,2.5,3.5,71,0.00,,,0.00,WeatherDisplay:10.37,2013-02-14 09:06:00,
2013-02-14 03:11:00,39.6,30.6,29.93,WSW,250,2.8,5.8,70,0.00,,,0.00,WeatherDisplay:10.37,2013-02-14 09:11:00,
2013-02-14 03:16:00,39.3,30.7,29.93,West,262,3.4,3.5,71,0.00,,,0.00,WeatherDisplay:10.37,2013-02-14 09:16:00,
2013-02-14 03:21:00,39.1,30.8,29.93,SW,230,4.5,5.0,72,0.00,,,0.00,WeatherDisplay:10.37,2013-02-14 09:21:00,
2013-02-14 03:26:00,39.1,30.8,29.93,WSW,256,4.4,5.0,72,0.00,,,0.00,WeatherDisplay:10.37,2013-02-14 09:26:00,
2013-02-14 03:31:00,39.1,30.5,29.93,WSW,249,2.6,3.5,71,0.00,,,0.00,WeatherDisplay:10.37,2013-02-14 09:31:00,
2013-02-14 03:36:00,39.2,30.2,29.93,WSW,257,3.4,5.8,70,0.00,,,0.00,WeatherDisplay:10.37,2013-02-14 09:36:00,
2013-02-14 03:41:00,39.3,30.0,29.93,WSW,252,3.3,4.6,69,0.00,,,0.00,WeatherDisplay:10.37,2013-02-14 09:41:00,
2013-02-14 03:46:00,39.3,30.0,29.92,WSW,240,3.3,4.6,69,0.00,,,0.00,WeatherDisplay:10.37,2013-02-14 09:46:00,
2013-02-14 03:51:00,39.5,29.8,29.93,WSW,256,4.4,6.9,68,0.00,,,0.00,WeatherDisplay:10.37,2013-02-14 09:51:00,
2013-02-14 03:56:00,39.4,29.7,29.93,WSW,256,3.1,5.0,68,0.00,,,0.00,WeatherDisplay:10.37,2013-02-14 09:56:00,
2013-02-14 04:01:00,39.3,29.6,29.93,West,263,3.7,5.8,68,0.00,,,0.00,WeatherDisplay:10.37,2013-02-14 10:01:00,
2013-02-14 04:06:00,39.5,29.4,29.93,West,276,3.6,3.6,67,0.00,,,0.00,WeatherDisplay:10.37,2013-02-14 10:06:00,
2013-02-14 04:11:00,39.6,29.2,29.93,West,277,4.1,6.9,66,0.00,,,0.00,WeatherDisplay:10.37,2013-02-14 10:11:00,
2013-02-14 04:16:00,39.7,28.9,29.93,WNW,284,5.1,8.1,65,0.00,,,0.00,WeatherDisplay:10.37,2013-02-14 10:16:00,
2013-02-14 04:21:00,39.5,29.1,29.93,West,269,2.9,5.0,66,0.00,,,0.00,WeatherDisplay:10.37,2013-02-14 10:21:00,
2013-02-14 04:26:00,39.5,28.7,29.93,West,270,4.8,5.8,65,0.00,,,0.00,WeatherDisplay:10.37,2013-02-14 10:26:00,
2013-02-14 04:31:00,39.5,28.7,29.93,West,276,4.2,4.6,65,0.00,,,0.00,WeatherDisplay:10.37,2013-02-14 10:31:00,
2013-02-14 04:36:00,39.5,28.7,29.93,WSW,254,3.4,5.8,65,0.00,,,0.00,WeatherDisplay:10.37,2013-02-14 10:36:00,
2013-02-14 04:41:00,39.4,28.6,29.93,WSW,250,3.8,5.8,65,0.00,,,0.00,WeatherDisplay:10.37,2013-02-14 10:41:00,
2013-02-14 04:46:00,39.4,28.2,29.93,WSW,243,3.9,5.8,64,0.00,,,0.00,WeatherDisplay:10.37,2013-02-14 10:46:00,
2013-02-14 04:51:00,39.3,28.5,29.93,West,264,3.1,3.5,65,0.00,,,0.00,WeatherDisplay:10.37,2013-02-14 10:51:00,
2013-02-14 04:56:00,39.1,28.3,29.93,SW,224,3.3,5.8,65,0.00,,,0.00,WeatherDisplay:10.37,2013-02-14 10:56:00,
2013-02-14 05:01:00,38.9,28.1,29.93,West,262,3.2,4.6,65,0.00,,,0.00,WeatherDisplay:10.37,2013-02-14 11:01:00,
2013-02-14 05:06:00,38.9,28.1,29.93,WSW,252,3.7,7.0,65,0.00,,,0.00,WeatherDisplay:10.37,2013-02-14 11:06:00,
2013-02-14 05:11:00,39.0,28.2,29.93,WSW,256,3.6,5.0,65,0.00,,,0.00,WeatherDisplay:10.37,2013-02-14 11:11:00,
2013-02-14 05:16:00,38.9,28.1,29.93,West,269,2.7,3.5,65,0.00,,,0.00,WeatherDisplay:10.37,2013-02-14 11:16:00,
2013-02-14 05:21:00,38.9,28.1,29.93,West,269,3.6,4.6,65,0.00,,,0.00,WeatherDisplay:10.37,2013-02-14 11:21:00,
2013-02-14 05:26:00,38.9,27.8,29.93,West,269,4.1,4.6,64,0.00,,,0.00,WeatherDisplay:10.37,2013-02-14 11:26:00,
2013-02-14 05:31:00,39.0,27.8,29.93,West,266,3.3,4.0,64,0.00,,,0.00,WeatherDisplay:10.37,2013-02-14 11:31:00,
2013-02-14 05:36:00,39.1,27.9,29.92,WSW,253,3.6,5.8,64,0.00,,,0.00,WeatherDisplay:10.37,2013-02-14 11:36:00,
2013-02-14 05:41:00,39.0,27.8,29.93,West,263,3.1,3.5,64,0.00,,,0.00,WeatherDisplay:10.37,2013-02-14 11:41:00,
2013-02-14 05:46:00,39.1,27.6,29.92,West,266,3.8,6.9,63,0.00,,,0.00,WeatherDisplay:10.37,2013-02-14 11:46:00,
2013-02-14 05:51:00,39.3,27.7,29.93,WSW,256,4.2,5.8,63,0.00,,,0.00,WeatherDisplay:10.37,2013-02-14 11:51:00,
2013-02-14 05:56:00,39.0,27.8,29.93,WSW,247,3.6,4.6,64,0.00,,,0.00,WeatherDisplay:10.37,2013-02-14 11:56:00,
2013-02-14 06:01:00,38.9,27.8,29.93,WSW,241,3.2,5.8,64,0.00,,,0.00,WeatherDisplay:10.37,2013-02-14 12:01:00,
2013-02-14 06:06:00,38.6,27.8,29.93,WSW,253,3.9,4.6,65,0.00,,,0.00,WeatherDisplay:10.37,2013-02-14 12:06:00,
2013-02-14 06:11:00,38.7,27.9,29.93,West,266,5.0,6.9,65,0.00,,,0.00,WeatherDisplay:10.37,2013-02-14 12:11:00,
2013-02-14 06:16:00,38.7,27.6,29.93,West,267,4.3,6.9,64,0.00,,,0.00,WeatherDisplay:10.37,2013-02-14 12:16:00,
2013-02-14 06:21:00,38.5,27.7,29.94,WSW,245,4.6,4.6,65,0.00,,,0.00,WeatherDisplay:10.37,2013-02-14 12:21:00,
2013-02-14 06:26:00,38.2,27.5,29.94,West,260,4.4,5.0,65,0.00,,,0.00,WeatherDisplay:10.37,2013-02-14 12:26:00,
2013-02-14 06:31:00,38.3,27.6,29.94,WSW,243,3.4,4.0,65,0.00,,,0.00,WeatherDisplay:10.37,2013-02-14 12:31:00,
2013-02-14 06:36:00,38.3,27.6,29.95,West,263,2.1,3.0,65,0.00,,,0.00,WeatherDisplay:10.37,2013-02-14 12:36:00,
2013-02-14 06:41:00,38.1,27.4,29.95,WNW,287,3.7,3.7,65,0.00,,,0.00,WeatherDisplay:10.37,2013-02-14 12:41:00,
2013-02-14 06:46:00,38.4,27.7,29.95,WSW,245,3.7,5.0,65,0.00,,,0.00,WeatherDisplay:10.37,2013-02-14 12:46:00,
2013-02-14 06:51:00,38.4,27.7,29.94,WSW,249,3.4,4.6,65,0.00,,,0.00,WeatherDisplay:10.37,2013-02-14 12:51:00,
2013-02-14 06:56:00,38.4,27.3,29.95,WSW,252,3.6,4.6,64,0.00,,,0.00,WeatherDisplay:10.37,2013-02-14 12:56:00,
2013-02-14 07:01:00,38.3,27.2,29.95,West,279,4.0,4.6,64,0.00,CLR,,0.00,WeatherDisplay:10.37,2013-02-14 13:01:00,
2013-02-14 07:06:00,38.3,27.6,29.95,West,259,2.7,4.6,65,0.00,CLR,,0.00,WeatherDisplay:10.37,2013-02-14 13:06:00,
2013-02-14 07:11:00,38.1,27.4,29.95,WSW,249,3.5,5.0,65,0.00,CLR,,0.00,WeatherDisplay:10.37,2013-02-14 13:11:00,
2013-02-14 07:16:00,38.3,27.2,29.96,West,263,3.4,5.0,64,0.00,CLR,,0.00,WeatherDisplay:10.37,2013-02-14 13:16:00,
2013-02-14 07:21:00,38.4,27.3,29.96,SW,231,2.4,4.6,64,0.00,CLR,,0.00,WeatherDisplay:10.37,2013-02-14 13:21:00,
2013-02-14 07:26:00,38.5,27.4,29.96,WSW,240,3.4,6.9,64,0.00,CLR,,0.00,WeatherDisplay:10.37,2013-02-14 13:26:00,
2013-02-14 07:31:00,38.6,27.5,29.96,WNW,284,4.8,8.1,64,0.00,CLR,,0.00,WeatherDisplay:10.37,2013-02-14 13:31:00,
2013-02-14 07:36:00,38.7,27.2,29.96,WSW,241,4.3,5.0,63,0.00,CLR,,0.00,WeatherDisplay:10.37,2013-02-14 13:36:00,
2013-02-14 07:41:00,38.9,27.4,29.97,West,264,3.4,4.6,63,0.00,CLR,,0.00,WeatherDisplay:10.37,2013-02-14 13:41:00,
2013-02-14 07:46:00,39.0,27.5,29.97,WSW,245,2.8,4.0,63,0.00,CLR,,0.00,WeatherDisplay:10.37,2013-02-14 13:46:00,
2013-02-14 07:51:00,39.2,27.7,29.97,West,274,2.9,4.6,63,0.00,CLR,,0.00,WeatherDisplay:10.37,2013-02-14 13:51:00,
2013-02-14 07:56:00,39.4,27.5,29.98,West,274,2.2,3.5,62,0.00,CLR,,0.00,WeatherDisplay:10.37,2013-02-14 13:56:00,
2013-02-14 08:01:00,39.9,27.5,29.98,WNW,300,2.2,3.5,61,0.00,CLR,,0.00,WeatherDisplay:10.37,2013-02-14 14:01:00,
2013-02-14 08:07:00,40.1,27.7,29.99,WNW,292,4.0,4.6,61,0.00,CLR,,0.00,WeatherDisplay:10.37,2013-02-14 14:07:00,
2013-02-14 08:12:00,40.2,27.8,29.99,NW,309,4.7,5.8,61,0.00,CLR,,0.00,WeatherDisplay:10.37,2013-02-14 14:12:00,
2013-02-14 08:17:00,40.4,28.0,29.99,WNW,296,3.4,6.9,61,0.00,CLR,,0.00,WeatherDisplay:10.37,2013-02-14 14:17:00,
2013-02-14 08:22:00,40.4,28.0,29.99,West,278,6.0,8.1,61,0.00,CLR,,0.00,WeatherDisplay:10.37,2013-02-14 14:22:00,
2013-02-14 08:27:00,40.6,28.2,30.00,West,276,3.4,5.0,61,0.00,CLR,,0.00,WeatherDisplay:10.37,2013-02-14 14:27:00,
2013-02-14 08:32:00,40.7,28.7,30.00,West,264,6.0,8.0,62,0.00,CLR,,0.00,WeatherDisplay:10.37,2013-02-14 14:32:00,
2013-02-14 08:37:00,40.9,28.5,30.00,WNW,292,3.9,8.1,61,0.00,CLR,,0.00,WeatherDisplay:10.37,2013-02-14 14:37:00,
2013-02-14 08:42:00,41.1,28.7,30.00,West,274,4.4,6.9,61,0.00,CLR,,0.00,WeatherDisplay:10.37,2013-02-14 14:42:00,
2013-02-14 08:47:00,41.5,28.6,30.01,WNW,294,5.4,8.1,60,0.00,CLR,,0.00,WeatherDisplay:10.37,2013-02-14 14:47:00,
2013-02-14 08:52:00,41.7,28.4,30.01,WNW,297,3.4,5.8,59,0.00,CLR,,0.00,WeatherDisplay:10.37,2013-02-14 14:52:00,
2013-02-14 08:57:00,42.0,29.1,30.01,WNW,283,4.0,6.9,60,0.00,CLR,,0.00,WeatherDisplay:10.37,2013-02-14 14:57:00,
2013-02-14 09:02:00,42.3,29.0,30.00,West,279,4.8,7.0,59,0.00,CLR,,0.00,WeatherDisplay:10.37,2013-02-14 15:02:00,
2013-02-14 09:07:00,42.5,28.8,30.00,West,277,8.1,13.0,58,0.00,CLR,,0.00,WeatherDisplay:10.37,2013-02-14 15:07:00,
2013-02-14 09:12:00,42.9,29.5,30.01,WNW,290,3.3,4.6,59,0.00,CLR,,0.00,WeatherDisplay:10.37,2013-02-14 15:12:00,
2013-02-14 09:17:00,43.1,29.3,30.00,WNW,293,6.6,11.5,58,0.00,CLR,,0.00,WeatherDisplay:10.37,2013-02-14 15:17:00,
2013-02-14 09:22:00,43.3,29.5,30.00,West,276,5.7,8.1,58,0.00,CLR,,0.00,WeatherDisplay:10.37,2013-02-14 15:22:00,
2013-02-14 09:27:00,43.5,29.3,30.01,WNW,301,6.2,8.0,57,0.00,CLR,,0.00,WeatherDisplay:10.37,2013-02-14 15:27:00,
2013-02-14 09:32:00,43.9,29.6,30.00,NW,307,5.9,8.1,57,0.00,CLR,,0.00,WeatherDisplay:10.37,2013-02-14 15:32:00,
2013-02-14 09:37:00,44.4,30.5,30.01,WNW,302,2.7,3.5,58,0.00,CLR,,0.00,WeatherDisplay:10.37,2013-02-14 15:37:00,
2013-02-14 09:42:00,45.0,30.7,30.01,WNW,290,3.9,5.0,57,0.00,CLR,,0.00,WeatherDisplay:10.37,2013-02-14 15:42:00,
2013-02-14 09:47:00,45.5,31.1,30.01,NW,321,2.5,3.5,57,0.00,CLR,,0.00,WeatherDisplay:10.37,2013-02-14 15:47:00,
2013-02-14 09:52:00,45.7,30.4,30.01,NNW,328,5.0,9.2,55,0.00,CLR,,0.00,WeatherDisplay:10.37,2013-02-14 15:52:00,
2013-02-14 09:57:00,45.8,31.4,30.01,WNW,284,3.4,6.9,57,0.00,CLR,,0.00,WeatherDisplay:10.37,2013-02-14 15:57:00,
2013-02-14 10:02:00,46.3,31.0,30.02,WNW,291,2.3,3.5,55,0.00,CLR,,0.00,WeatherDisplay:10.37,2013-02-14 16:02:00,
2013-02-14 10:07:00,46.3,31.4,30.02,WNW,298,5.3,10.4,56,0.00,CLR,,0.00,WeatherDisplay:10.37,2013-02-14 16:07:00,
2013-02-14 10:12:00,46.3,31.4,30.02,WNW,294,5.8,8.1,56,0.00,CLR,,0.00,WeatherDisplay:10.37,2013-02-14 16:12:00,
2013-02-14 10:17:00,46.4,31.1,30.02,West,277,6.4,8.1,55,0.00,CLR,,0.00,WeatherDisplay:10.37,2013-02-14 16:17:00,
2013-02-14 10:22:00,46.4,31.5,30.02,NW,312,5.9,9.2,56,0.00,CLR,,0.00,WeatherDisplay:10.37,2013-02-14 16:22:00,
2013-02-14 10:27:00,46.5,32.1,30.02,WNW,292,2.2,3.5,57,0.00,CLR,,0.00,WeatherDisplay:10.37,2013-02-14 16:27:00,
2013-02-14 10:32:00,47.1,31.7,30.02,WNW,285,6.1,8.1,55,0.00,CLR,,0.00,WeatherDisplay:10.37,2013-02-14 16:32:00,
2013-02-14 10:37:00,47.2,32.3,30.02,WNW,302,2.1,3.5,56,0.00,CLR,,0.00,WeatherDisplay:10.37,2013-02-14 16:37:00,
2013-02-14 10:42:00,47.8,32.4,30.02,WNW,293,4.9,9.2,55,0.00,CLR,,0.00,WeatherDisplay:10.37,2013-02-14 16:42:00,
2013-02-14 10:47:00,47.9,32.5,30.02,WNW,298,4.5,6.9,55,0.00,CLR,,0.00,WeatherDisplay:10.37,2013-02-14 16:47:00,
2013-02-14 10:52:00,48.2,33.7,30.02,NW,323,3.2,5.0,57,0.00,CLR,,0.00,WeatherDisplay:10.37,2013-02-14 16:52:00,
2013-02-14 10:57:00,48.2,32.3,30.02,North,7,4.4,5.8,54,0.00,CLR,,0.00,WeatherDisplay:10.37,2013-02-14 16:57:00,
2013-02-14 11:02:00,48.9,33.9,30.02,West,280,0.1,1.1,56,0.00,CLR,,0.00,WeatherDisplay:10.37,2013-02-14 17:02:00,
2013-02-14 11:07:00,49.2,33.3,30.02,WNW,297,3.8,9.2,54,0.00,CLR,,0.00,WeatherDisplay:10.37,2013-02-14 17:07:00,
2013-02-14 11:12:00,49.2,33.7,30.02,NW,307,2.1,3.5,55,0.00,CLR,,0.00,WeatherDisplay:10.37,2013-02-14 17:12:00,
2013-02-14 11:17:00,49.6,33.2,30.02,West,271,3.8,5.8,53,0.00,CLR,,0.00,WeatherDisplay:10.37,2013-02-14 17:17:00,
2013-02-14 11:22:00,49.7,33.2,30.02,WNW,284,5.5,6.0,53,0.00,CLR,,0.00,WeatherDisplay:10.37,2013-02-14 17:22:00,
2013-02-14 11:27:00,49.8,33.3,30.02,NNW,334,3.4,5.8,53,0.00,CLR,,0.00,WeatherDisplay:10.37,2013-02-14 17:27:00,
2013-02-14 11:32:00,50.1,34.5,30.02,WNW,295,2.0,3.5,55,0.00,CLR,,0.00,WeatherDisplay:10.37,2013-02-14 17:32:00,
2013-02-14 11:37:00,50.3,33.3,30.02,West,274,4.8,8.1,52,0.00,CLR,,0.00,WeatherDisplay:10.37,2013-02-14 17:37:00,
2013-02-14 11:42:00,50.5,34.9,30.02,WSW,242,1.6,3.5,55,0.00,CLR,,0.00,WeatherDisplay:10.37,2013-02-14 17:42:00,
2013-02-14 11:47:00,50.8,34.7,30.02,WNW,297,1.7,4.0,54,0.00,CLR,,0.00,WeatherDisplay:10.37,2013-02-14 17:47:00,
2013-02-14 11:52:00,51.2,34.2,30.02,WNW,291,3.6,6.9,52,0.00,CLR,,0.00,WeatherDisplay:10.37,2013-02-14 17:52:00,
2013-02-14 11:57:00,50.5,34.5,30.02,WSW,248,3.9,6.9,54,0.00,CLR,,0.00,WeatherDisplay:10.37,2013-02-14 17:57:00,
2013-02-14 12:02:00,50.9,34.4,30.02,West,280,5.4,7.0,53,0.00,CLR,,0.00,WeatherDisplay:10.37,2013-02-14 18:02:00,
2013-02-14 12:07:00,50.9,33.9,30.02,WNW,299,6.4,8.0,52,0.00,CLR,,0.00,WeatherDisplay:10.37,2013-02-14 18:07:00,
2013-02-14 12:12:00,51.2,34.2,30.01,NNW,345,3.3,4.6,52,0.00,CLR,,0.00,WeatherDisplay:10.37,2013-02-14 18:12:00,
2013-02-14 12:17:00,51.1,34.5,30.01,NW,305,3.0,5.0,53,0.00,CLR,,0.00,WeatherDisplay:10.37,2013-02-14 18:17:00,
2013-02-14 12:22:00,51.5,34.4,30.01,NE,37,0.7,2.3,52,0.00,CLR,,0.00,WeatherDisplay:10.37,2013-02-14 18:22:00,
2013-02-14 12:27:00,51.7,34.1,30.01,NW,305,5.7,6.9,51,0.00,CLR,,0.00,WeatherDisplay:10.37,2013-02-14 18:27:00,
2013-02-14 12:32:00,51.7,33.6,30.01,WNW,295,5.1,8.1,50,0.00,CLR,,0.00,WeatherDisplay:10.37,2013-02-14 18:32:00,
2013-02-14 12:37:00,52.3,34.2,30.01,WNW,294,3.4,4.6,50,0.00,CLR,,0.00,WeatherDisplay:10.37,2013-02-14 18:37:00,
2013-02-14 12:42:00,52.9,34.2,30.01,West,280,6.3,6.9,49,0.00,CLR,,0.00,WeatherDisplay:10.37,2013-02-14 18:42:00,
2013-02-14 12:47:00,52.6,34.5,30.00,WNW,294,4.3,10.4,50,0.00,CLR,,0.00,WeatherDisplay:10.37,2013-02-14 18:47:00,
2013-02-14 12:52:00,52.8,34.2,30.00,NNE,13,5.8,8.1,49,0.00,CLR,,0.00,WeatherDisplay:10.37,2013-02-14 18:52:00,
2013-02-14 12:57:00,52.8,34.2,30.00,NE,49,2.2,4.6,49,0.00,CLR,,0.00,WeatherDisplay:10.37,2013-02-14 18:57:00,
2013-02-14 13:02:00,53.2,34.5,30.00,NW,304,5.3,6.0,49,0.00,CLR,,0.00,WeatherDisplay:10.37,2013-02-14 19:02:00,
2013-02-14 13:07:00,53.4,34.2,30.00,West,271,2.5,3.5,48,0.00,CLR,,0.00,WeatherDisplay:10.37,2013-02-14 19:07:00,
2013-02-14 13:12:00,54.3,34.5,30.00,WNW,294,5.1,5.8,47,0.00,CLR,,0.00,WeatherDisplay:10.37,2013-02-14 19:12:00,
2013-02-14 13:17:00,54.4,35.1,30.00,NNW,340,4.4,5.8,48,0.00,CLR,,0.00,WeatherDisplay:10.37,2013-02-14 19:17:00,
2013-02-14 13:23:00,54.1,34.3,30.00,NNW,338,3.2,8.1,47,0.00,CLR,,0.00,WeatherDisplay:10.37,2013-02-14 19:23:00,
2013-02-14 13:28:00,54.1,34.8,30.00,NW,309,4.6,5.8,48,0.00,CLR,,0.00,WeatherDisplay:10.37,2013-02-14 19:28:00,
2013-02-14 13:33:00,54.3,34.5,30.00,WNW,291,3.7,8.1,47,0.00,CLR,,0.00,WeatherDisplay:10.37,2013-02-14 19:33:00,
2013-02-14 13:38:00,54.4,34.6,29.99,NW,304,3.0,9.2,47,0.00,CLR,,0.00,WeatherDisplay:10.37,2013-02-14 19:38:00,
2013-02-14 13:43:00,54.7,35.4,29.99,North,352,1.6,5.8,48,0.00,CLR,,0.00,WeatherDisplay:10.37,2013-02-14 19:43:00,
2013-02-14 13:48:00,54.6,34.2,29.99,WNW,288,2.8,5.8,46,0.00,CLR,,0.00,WeatherDisplay:10.37,2013-02-14 19:48:00,
2013-02-14 13:53:00,54.6,34.2,29.99,NW,326,3.9,7.0,46,0.00,CLR,,0.00,WeatherDisplay:10.37,2013-02-14 19:53:00,
2013-02-14 13:58:00,54.3,33.9,29.99,West,270,3.2,5.8,46,0.00,CLR,,0.00,WeatherDisplay:10.37,2013-02-14 19:58:00,
2013-02-14 14:03:00,54.2,34.4,29.99,WNW,295,4.6,6.9,47,0.00,CLR,,0.00,WeatherDisplay:10.37,2013-02-14 20:03:00,
2013-02-14 14:08:00,54.5,34.7,29.99,NE,46,2.4,4.6,47,0.00,CLR,,0.00,WeatherDisplay:10.37,2013-02-14 20:08:00,
2013-02-14 14:13:00,55.2,34.2,29.98,WNW,294,6.9,9.2,45,0.00,CLR,,0.00,WeatherDisplay:10.37,2013-02-14 20:13:00,
2013-02-14 14:18:00,55.0,34.0,29.99,West,269,5.5,7.0,45,0.00,CLR,,0.00,WeatherDisplay:10.37,2013-02-14 20:18:00,
2013-02-14 14:23:00,54.4,34.6,29.99,West,270,3.5,4.6,47,0.00,CLR,,0.00,WeatherDisplay:10.37,2013-02-14 20:23:00,
2013-02-14 14:28:00,54.6,34.2,29.99,West,276,3.7,5.0,46,0.00,CLR,,0.00,WeatherDisplay:10.37,2013-02-14 20:28:00,
2013-02-14 14:33:00,54.6,33.7,29.99,WNW,290,6.8,8.1,45,0.00,CLR,,0.00,WeatherDisplay:10.37,2013-02-14 20:33:00,
2013-02-14 14:38:00,54.5,34.7,29.99,WNW,294,4.8,9.2,47,0.00,CLR,,0.00,WeatherDisplay:10.37,2013-02-14 20:38:00,
2013-02-14 14:43:00,54.5,34.1,29.99,NW,304,5.5,9.2,46,0.00,CLR,,0.00,WeatherDisplay:10.37,2013-02-14 20:43:00,
2013-02-14 14:48:00,54.8,34.9,29.98,West,279,2.5,4.6,47,0.00,CLR,,0.00,WeatherDisplay:10.37,2013-02-14 20:48:00,
2013-02-14 14:53:00,55.0,34.6,29.99,WNW,291,2.5,5.8,46,0.00,CLR,,0.00,WeatherDisplay:10.37,2013-02-14 20:53:00,
2013-02-14 14:58:00,55.4,33.8,29.99,NW,304,5.5,9.2,44,0.00,CLR,,0.00,WeatherDisplay:10.37,2013-02-14 20:58:00,
2013-02-14 15:03:00,55.0,32.3,29.99,NW,309,7.2,10.4,42,0.00,CLR,,0.00,WeatherDisplay:10.37,2013-02-14 21:03:00,
2013-02-14 15:08:00,54.6,31.9,29.99,WNW,301,5.7,8.1,42,0.00,CLR,,0.00,WeatherDisplay:10.37,2013-02-14 21:08:00,
2013-02-14 15:13:00,54.7,32.6,30.00,NNW,332,4.9,6.9,43,0.00,CLR,,0.00,WeatherDisplay:10.37,2013-02-14 21:13:00,
2013-02-14 15:18:00,54.5,31.9,30.00,NW,307,4.4,8.1,42,0.00,CLR,,0.00,WeatherDisplay:10.37,2013-02-14 21:18:00,
2013-02-14 15:23:00,54.3,32.3,30.00,WSW,252,1.4,3.5,43,0.00,CLR,,0.00,WeatherDisplay:10.37,2013-02-14 21:23:00,
2013-02-14 15:28:00,54.7,32.0,30.00,West,281,6.4,9.2,42,0.00,CLR,,0.00,WeatherDisplay:10.37,2013-02-14 21:28:00,
2013-02-14 15:33:00,54.4,31.8,30.00,West,276,6.7,9.2,42,0.00,CLR,,0.00,WeatherDisplay:10.37,2013-02-14 21:33:00,
2013-02-14 15:38:00,54.3,31.7,30.00,WNW,283,6.1,10.4,42,0.00,CLR,,0.00,WeatherDisplay:10.37,2013-02-14 21:38:00,
2013-02-14 15:43:00,54.3,31.7,30.00,WNW,283,4.2,6.9,42,0.00,CLR,,0.00,WeatherDisplay:10.37,2013-02-14 21:43:00,
2013-02-14 15:48:00,54.0,32.0,30.01,WNW,298,6.2,10.4,43,0.00,CLR,,0.00,WeatherDisplay:10.37,2013-02-14 21:48:00,
2013-02-14 15:53:00,53.8,31.8,30.01,WNW,291,7.0,9.2,43,0.00,CLR,,0.00,WeatherDisplay:10.37,2013-02-14 21:53:00,
2013-02-14 15:58:00,53.6,31.6,30.01,NW,305,5.8,8.1,43,0.00,CLR,,0.00,WeatherDisplay:10.37,2013-02-14 21:58:00,
2013-02-14 16:03:00,53.8,31.8,30.01,NW,304,5.5,9.0,43,0.00,CLR,,0.00,WeatherDisplay:10.37,2013-02-14 22:03:00,
2013-02-14 16:08:00,53.7,32.3,30.01,West,269,4.4,5.8,44,0.00,CLR,,0.00,WeatherDisplay:10.37,2013-02-14 22:08:00,
2013-02-14 16:13:00,53.8,31.2,30.01,WNW,288,6.4,10.4,42,0.00,CLR,,0.00,WeatherDisplay:10.37,2013-02-14 22:13:00,
2013-02-14 16:18:00,53.9,31.9,30.02,WNW,290,3.7,8.1,43,0.00,CLR,,0.00,WeatherDisplay:10.37,2013-02-14 22:18:00,
2013-02-14 16:23:00,54.1,31.5,30.02,NW,312,5.8,8.1,42,0.00,CLR,,0.00,WeatherDisplay:10.37,2013-02-14 22:23:00,
2013-02-14 16:28:00,53.9,31.9,30.02,WNW,295,5.6,8.1,43,0.00,CLR,,0.00,WeatherDisplay:10.37,2013-02-14 22:28:00,
2013-02-14 16:33:00,53.4,31.4,30.02,West,269,5.3,8.1,43,0.00,CLR,,0.00,WeatherDisplay:10.37,2013-02-14 22:33:00,
2013-02-14 16:38:00,53.0,31.1,30.02,WNW,290,5.5,11.5,43,0.00,CLR,,0.00,WeatherDisplay:10.37,2013-02-14 22:38:00,
2013-02-14 16:43:00,52.7,30.8,30.02,West,275,5.6,11.5,43,0.00,CLR,,0.00,WeatherDisplay:10.37,2013-02-14 22:43:00,
2013-02-14 16:48:00,52.6,30.1,30.02,WNW,290,5.1,9.2,42,0.00,CLR,,0.00,WeatherDisplay:10.37,2013-02-14 22:48:00,
2013-02-14 16:53:00,52.5,30.0,30.02,WNW,297,5.7,6.9,42,0.00,CLR,,0.00,WeatherDisplay:10.37,2013-02-14 22:53:00,
2013-02-14 16:58:00,52.4,30.5,30.02,NW,316,6.3,6.9,43,0.00,CLR,,0.00,WeatherDisplay:10.37,2013-02-14 22:58:00,
2013-02-14 17:03:00,52.4,31.1,30.02,NW,307,3.5,8.1,44,0.00,CLR,,0.00,WeatherDisplay:10.37,2013-02-14 23:03:00,
2013-02-14 17:08:00,52.5,31.8,30.02,WNW,299,3.0,3.5,45,0.00,CLR,,0.00,WeatherDisplay:10.37,2013-02-14 23:08:00,
2013-02-14 17:13:00,52.4,31.7,30.02,West,276,3.7,4.6,45,0.00,CLR,,0.00,WeatherDisplay:10.37,2013-02-14 23:13:00,
2013-02-14 17:18:00,52.2,32.0,30.03,West,278,3.4,4.0,46,0.00,CLR,,0.00,WeatherDisplay:10.37,2013-02-14 23:18:00,
2013-02-14 17:23:00,52.0,31.8,30.03,WNW,300,3.9,6.9,46,0.00,CLR,,0.00,WeatherDisplay:10.37,2013-02-14 23:23:00,
2013-02-14 17:28:00,51.6,31.5,30.03,WNW,288,3.4,7.0,46,0.00,CLR,,0.00,WeatherDisplay:10.37,2013-02-14 23:28:00,
2013-02-14 17:33:00,51.3,31.2,30.03,WNW,290,6.3,11.5,46,0.00,CLR,,0.00,WeatherDisplay:10.37,2013-02-14 23:33:00,
2013-02-14 17:38:00,51.0,30.9,30.03,West,269,6.7,11.5,46,0.00,CLR,,0.00,WeatherDisplay:10.37,2013-02-14 23:38:00,
2013-02-14 17:43:00,50.6,31.6,30.04,WNW,295,4.8,10.4,48,0.00,CLR,,0.00,WeatherDisplay:10.37,2013-02-14 23:43:00,
2013-02-14 17:48:00,50.4,31.4,30.03,WNW,295,4.4,10.4,48,0.00,CLR,,0.00,WeatherDisplay:10.37,2013-02-14 23:48:00,
2013-02-14 17:53:00,50.2,31.8,30.04,WNW,297,4.5,8.1,49,0.00,CLR,,0.00,WeatherDisplay:10.37,2013-02-14 23:53:00,
2013-02-14 17:58:00,50.0,32.1,30.04,NW,312,5.1,11.0,50,0.00,CLR,,0.00,WeatherDisplay:10.37,2013-02-14 23:58:00,
2013-02-14 18:03:00,49.8,32.4,30.04,NW,320,3.9,8.1,51,0.00,,,0.00,WeatherDisplay:10.37,2013-02-15 00:03:00,
2013-02-14 18:08:00,49.6,32.2,30.04,NW,307,4.7,8.1,51,0.00,CLR,,0.00,WeatherDisplay:10.37,2013-02-15 00:08:00,
2013-02-14 18:13:00,49.4,32.5,30.04,WNW,300,2.6,3.5,52,0.00,CLR,,0.00,WeatherDisplay:10.37,2013-02-15 00:13:00,
2013-02-14 18:18:00,49.2,32.3,30.04,WNW,288,3.7,4.6,52,0.00,CLR,,0.00,WeatherDisplay:10.37,2013-02-15 00:18:00,
2013-02-14 18:23:00,49.0,32.6,30.05,WNW,297,2.9,3.5,53,0.00,CLR,,0.00,WeatherDisplay:10.37,2013-02-15 00:23:00,
2013-02-14 18:28:00,48.9,32.5,30.05,NW,323,3.2,6.0,53,0.00,CLR,,0.00,WeatherDisplay:10.37,2013-02-15 00:28:00,
2013-02-14 18:33:00,48.8,32.4,30.05,WNW,297,4.1,8.1,53,0.00,CLR,,0.00,WeatherDisplay:10.37,2013-02-15 00:33:00,
2013-02-14 18:38:00,48.6,32.2,30.05,WNW,294,2.8,3.5,53,0.00,CLR,,0.00,WeatherDisplay:10.37,2013-02-15 00:38:00,
2013-02-14 18:43:00,48.3,32.4,30.06,WNW,297,2.2,3.5,54,0.00,CLR,,0.00,WeatherDisplay:10.37,2013-02-15 00:43:00,
2013-02-14 18:48:00,48.0,32.1,30.06,NW,323,3.4,4.0,54,0.00,CLR,,0.00,WeatherDisplay:10.37,2013-02-15 00:48:00,
2013-02-14 18:53:00,47.7,32.3,30.06,NW,320,1.6,2.3,55,0.00,CLR,,0.00,WeatherDisplay:10.37,2013-02-15 00:53:00,
2013-02-14 18:58:00,47.5,32.1,30.06,NW,309,2.5,3.5,55,0.00,CLR,,0.00,WeatherDisplay:10.37,2013-02-15 00:58:00,
2013-02-14 19:03:00,47.4,32.5,30.06,NW,309,2.2,3.5,56,0.00,CLR,,0.00,WeatherDisplay:10.37,2013-02-15 01:03:00,
2013-02-14 19:08:00,47.2,32.3,30.06,NW,309,2.1,3.5,56,0.00,CLR,,0.00,WeatherDisplay:10.37,2013-02-15 01:08:00,
2013-02-14 19:14:00,47.0,32.1,30.06,WNW,301,1.0,2.3,56,0.00,CLR,,0.00,WeatherDisplay:10.37,2013-02-15 01:14:00,
2013-02-14 19:19:00,46.8,32.4,30.07,NW,312,3.1,4.6,57,0.00,CLR,,0.00,WeatherDisplay:10.37,2013-02-15 01:19:00,
2013-02-14 19:24:00,46.8,32.4,30.07,WNW,298,1.7,3.5,57,0.00,CLR,,0.00,WeatherDisplay:10.37,2013-02-15 01:24:00,
2013-02-14 19:29:00,46.7,32.3,30.07,NW,323,1.7,3.5,57,0.00,CLR,,0.00,WeatherDisplay:10.37,2013-02-15 01:29:00,
2013-02-14 19:34:00,46.7,32.3,30.07,WNW,301,3.1,5.8,57,0.00,CLR,,0.00,WeatherDisplay:10.37,2013-02-15 01:34:00,
2013-02-14 19:39:00,46.5,32.1,30.07,WNW,301,4.4,6.0,57,0.00,CLR,,0.00,WeatherDisplay:10.37,2013-02-15 01:39:00,
2013-02-14 19:44:00,46.5,32.1,30.08,NW,305,3.6,8.1,57,0.00,CLR,,0.00,WeatherDisplay:10.37,2013-02-15 01:44:00,
2013-02-14 19:49:00,46.3,31.9,30.08,WNW,301,5.8,5.8,57,0.00,CLR,,0.00,WeatherDisplay:10.37,2013-02-15 01:49:00,
2013-02-14 19:54:00,46.3,31.9,30.08,WNW,295,3.7,6.9,57,0.00,CLR,,0.00,WeatherDisplay:10.37,2013-02-15 01:54:00,
2013-02-14 19:59:00,46.2,31.8,30.08,WNW,301,5.9,11.5,57,0.00,CLR,,0.00,WeatherDisplay:10.37,2013-02-15 01:59:00,
2013-02-14 20:04:00,46.2,31.8,30.08,WNW,303,4.8,6.9,57,0.00,CLR,,0.00,WeatherDisplay:10.37,2013-02-15 02:04:00,
2013-02-14 20:09:00,46.0,31.6,30.08,NW,305,4.7,10.4,57,0.00,CLR,,0.00,WeatherDisplay:10.37,2013-02-15 02:09:00,
2013-02-14 20:14:00,46.0,31.6,30.08,NW,305,5.7,8.1,57,0.00,CLR,,0.00,WeatherDisplay:10.37,2013-02-15 02:14:00,
2013-02-14 20:19:00,45.8,31.4,30.08,NW,307,5.9,8.1,57,0.00,CLR,,0.00,WeatherDisplay:10.37,2013-02-15 02:19:00,
2013-02-14 20:24:00,45.7,31.8,30.08,WNW,301,5.2,6.9,58,0.00,CLR,,0.00,WeatherDisplay:10.37,2013-02-15 02:24:00,
2013-02-14 20:29:00,45.7,31.8,30.08,WNW,301,4.5,7.0,58,0.00,CLR,,0.00,WeatherDisplay:10.37,2013-02-15 02:29:00,
2013-02-14 20:34:00,45.7,31.8,30.09,WNW,297,6.8,8.1,58,0.00,CLR,,0.00,WeatherDisplay:10.37,2013-02-15 02:34:00,
2013-02-14 20:39:00,45.5,31.6,30.09,NW,323,4.1,8.1,58,0.00,CLR,,0.00,WeatherDisplay:10.37,2013-02-15 02:39:00,
2013-02-14 20:44:00,45.3,31.4,30.09,NW,305,3.7,5.8,58,0.00,CLR,,0.00,WeatherDisplay:10.37,2013-02-15 02:44:00,
2013-02-14 20:49:00,45.3,31.8,30.09,WNW,301,4.4,6.9,59,0.00,CLR,,0.00,WeatherDisplay:10.37,2013-02-15 02:49:00,
2013-02-14 20:54:00,45.1,31.6,30.09,WNW,290,4.1,8.1,59,0.00,CLR,,0.00,WeatherDisplay:10.37,2013-02-15 02:54:00,
2013-02-14 20:59:00,45.1,31.6,30.09,NW,312,3.3,4.6,59,0.00,CLR,,0.00,WeatherDisplay:10.37,2013-02-15 02:59:00,
2013-02-14 21:04:00,44.9,31.4,30.10,WNW,290,3.1,3.5,59,0.00,CLR,,0.00,WeatherDisplay:10.37,2013-02-15 03:04:00,
2013-02-14 21:09:00,44.8,31.8,30.10,WNW,301,3.3,5.8,60,0.00,CLR,,0.00,WeatherDisplay:10.37,2013-02-15 03:09:00,
2013-02-14 21:14:00,44.7,31.7,30.10,WNW,290,3.3,4.6,60,0.00,CLR,,0.00,WeatherDisplay:10.37,2013-02-15 03:14:00,
2013-02-14 21:19:00,44.6,31.6,30.10,WNW,293,2.6,3.5,60,0.00,CLR,,0.00,WeatherDisplay:10.37,2013-02-15 03:19:00,
2013-02-14 21:24:00,44.5,31.5,30.11,WNW,295,2.8,3.5,60,0.00,CLR,,0.00,WeatherDisplay:10.37,2013-02-15 03:24:00,
2013-02-14 21:29:00,44.4,31.8,30.11,WNW,300,3.5,4.6,61,0.00,CLR,,0.00,WeatherDisplay:10.37,2013-02-15 03:29:00,
2013-02-14 21:34:00,44.3,31.7,30.11,WNW,294,3.4,3.5,61,0.00,CLR,,0.00,WeatherDisplay:10.37,2013-02-15 03:34:00,
2013-02-14 21:39:00,44.1,31.9,30.11,WNW,297,3.7,5.8,62,0.00,CLR,,0.00,WeatherDisplay:10.37,2013-02-15 03:39:00,
2013-02-14 21:44:00,44.1,31.9,30.11,WNW,291,2.5,4.6,62,0.00,CLR,,0.00,WeatherDisplay:10.37,2013-02-15 03:44:00,
2013-02-14 21:49:00,44.1,31.9,30.11,NW,312,3.6,4.6,62,0.00,CLR,,0.00,WeatherDisplay:10.37,2013-02-15 03:49:00,
2013-02-14 21:54:00,44.0,31.8,30.11,WNW,300,3.9,8.1,62,0.00,CLR,,0.00,WeatherDisplay:10.37,2013-02-15 03:54:00,
2013-02-14 21:59:00,44.1,31.9,30.11,WNW,295,3.5,4.6,62,0.00,CLR,,0.00,WeatherDisplay:10.37,2013-02-15 03:59:00,
2013-02-14 22:04:00,44.1,31.9,30.11,NW,305,5.0,7.0,62,0.00,CLR,,0.00,WeatherDisplay:10.37,2013-02-15 04:04:00,
2013-02-14 22:09:00,44.2,32.0,30.11,NNW,334,3.4,4.6,62,0.00,CLR,,0.00,WeatherDisplay:10.37,2013-02-15 04:09:00,
2013-02-14 22:14:00,44.2,32.0,30.12,WNW,298,5.6,6.9,62,0.00,CLR,,0.00,WeatherDisplay:10.37,2013-02-15 04:14:00,
2013-02-14 22:19:00,44.1,31.9,30.11,NW,315,3.4,5.0,62,0.00,CLR,,0.00,WeatherDisplay:10.37,2013-02-15 04:19:00,
2013-02-14 22:24:00,44.1,31.9,30.12,WNW,292,4.0,4.6,62,0.00,CLR,,0.00,WeatherDisplay:10.37,2013-02-15 04:24:00,
2013-02-14 22:29:00,44.1,32.3,30.12,NW,312,3.7,4.6,63,0.00,CLR,,0.00,WeatherDisplay:10.37,2013-02-15 04:29:00,
2013-02-14 22:34:00,44.1,32.3,30.12,NW,322,4.9,5.8,63,0.00,CLR,,0.00,WeatherDisplay:10.37,2013-02-15 04:34:00,
2013-02-14 22:39:00,44.1,31.9,30.12,NW,305,3.9,5.0,62,0.00,CLR,,0.00,WeatherDisplay:10.37,2013-02-15 04:39:00,
2013-02-14 22:44:00,44.1,31.9,30.12,NNW,328,6.5,7.0,62,0.00,CLR,,0.00,WeatherDisplay:10.37,2013-02-15 04:44:00,
2013-02-14 22:49:00,44.0,31.8,30.13,WNW,303,5.7,10.4,62,0.00,CLR,,0.00,WeatherDisplay:10.37,2013-02-15 04:49:00,
2013-02-14 22:54:00,44.0,31.8,30.13,NW,313,3.3,8.1,62,0.00,CLR,,0.00,WeatherDisplay:10.37,2013-02-15 04:54:00,
2013-02-14 22:59:00,43.8,31.6,30.13,NW,307,6.4,10.4,62,0.00,CLR,,0.00,WeatherDisplay:10.37,2013-02-15 04:59:00,
2013-02-14 23:00:00,43.9,31.7,30.13,NW,322,6.1,10.4,62,0.00,CLR,,0.00,WeatherDisplay:10.37,2013-02-15 05:00:00,
2013-02-14 23:05:00,43.8,31.6,30.12,WNW,302,5.4,8.0,62,0.00,CLR,,0.00,WeatherDisplay:10.37,2013-02-15 05:05:00,
2013-02-14 23:10:00,43.8,31.6,30.13,WNW,302,4.2,4.6,62,0.00,CLR,,0.00,WeatherDisplay:10.37,2013-02-15 05:10:00,
2013-02-14 23:15:00,43.6,31.4,30.13,NW,312,5.6,9.2,62,0.00,CLR,,0.00,WeatherDisplay:10.37,2013-02-15 05:15:00,
2013-02-14 23:20:00,43.7,31.1,30.12,NW,319,4.9,6.9,61,0.00,CLR,,0.00,WeatherDisplay:10.37,2013-02-15 05:20:00,
2013-02-14 23:25:00,43.6,31.0,30.13,WNW,295,5.4,8.1,61,0.00,CLR,,0.00,WeatherDisplay:10.37,2013-02-15 05:25:00,
2013-02-14 23:30:00,43.7,30.7,30.12,NW,312,6.1,9.2,60,0.00,CLR,,0.00,WeatherDisplay:10.37,2013-02-15 05:30:00,
2013-02-14 23:35:00,43.7,30.7,30.13,WNW,298,7.2,8.1,60,0.00,CLR,,0.00,WeatherDisplay:10.37,2013-02-15 05:35:00,
2013-02-14 23:40:00,43.7,30.7,30.13,WNW,300,4.6,5.8,60,0.00,CLR,,0.00,WeatherDisplay:10.37,2013-02-15 05:40:00,
2013-02-14 23:45:00,43.7,30.7,30.13,NW,314,5.0,5.8,60,0.00,CLR,,0.00,WeatherDisplay:10.37,2013-02-15 05:45:00,
2013-02-14 23:50:00,43.6,30.6,30.13,WNW,295,3.6,5.8,60,0.00,CLR,,0.00,WeatherDisplay:10.37,2013-02-15 05:50:00,
2013-02-14 23:55:00,43.6,30.6,30.13,WNW,300,3.0,4.6,60,0.00,CLR,,0.00,WeatherDisplay:10.37,2013-02-15 05:55:00,